X  Kiinni Metar Aviation säätiedot        EDDE Erfurt
Lämpötila
2°C Lämpötila
0°C Kastepiste
87% Kosteus



Tuuli
7 KM/T
5 MPH
2 M/S
4 KTS



180°
E
Nykyiset olosuhteet

Mostly Cloudy Enimmäkseen pilvistä
Paine 1008 (hPa) - 29.75 (inHg)
Näkyvyys 30 (maili) - 48 (km)
Lentokenttä
Lentokentän koodi EDDE

Sijainti: Erfurt
Etäisyys: 25 (km)

Metar:
METAR EDDE 051720Z 18004KT 9999 BKN046 02/M00 Q1006 NOSIG

Aika: 05.12.2021 18:20 CET